createdAt,value
2017-01-18T00:00:52.607Z,971.37
2017-01-18T00:01:52.586Z,971.39
2017-01-18T00:02:52.566Z,971.35
2017-01-18T00:03:52.547Z,971.33
2017-01-18T00:04:52.525Z,971.38
2017-01-18T00:05:52.505Z,971.36
2017-01-18T00:06:52.485Z,971.34
2017-01-18T00:07:52.463Z,971.31
2017-01-18T00:08:52.443Z,971.31
2017-01-18T00:09:52.424Z,971.29
2017-01-18T00:10:52.404Z,971.31
2017-01-18T00:11:52.382Z,971.22
2017-01-18T00:12:52.361Z,971.29
2017-01-18T00:13:52.342Z,971.26
2017-01-18T00:14:52.322Z,971.28
2017-01-18T00:15:52.300Z,971.26
2017-01-18T00:16:52.281Z,971.27
2017-01-18T00:17:52.259Z,971.25
2017-01-18T00:18:52.238Z,971.27
2017-01-18T00:19:52.219Z,971.31
2017-01-18T00:20:52.198Z,971.3
2017-01-18T00:21:52.178Z,971.3
2017-01-18T00:22:52.157Z,971.36
2017-01-18T00:23:52.136Z,971.36
2017-01-18T00:24:52.115Z,971.34
2017-01-18T00:25:52.094Z,971.31
2017-01-18T00:26:52.073Z,971.36
2017-01-18T00:27:52.053Z,971.4
2017-01-18T00:28:52.032Z,971.42
2017-01-18T00:29:52.012Z,971.41
2017-01-18T00:30:51.991Z,971.45
2017-01-18T00:31:51.971Z,971.46
2017-01-18T00:32:51.949Z,971.46
2017-01-18T00:33:51.928Z,971.51
2017-01-18T00:34:51.908Z,971.53
2017-01-18T00:35:51.886Z,971.52
2017-01-18T00:36:51.865Z,971.53
2017-01-18T00:37:51.844Z,971.54
2017-01-18T00:38:51.823Z,971.56
2017-01-18T00:39:51.802Z,971.61
2017-01-18T00:40:51.781Z,971.59
2017-01-18T00:41:51.764Z,971.53
2017-01-18T00:42:51.739Z,971.58
2017-01-18T00:43:51.719Z,971.55
2017-01-18T00:44:51.697Z,971.56
2017-01-18T00:45:51.676Z,971.58
2017-01-18T00:46:51.655Z,971.61
2017-01-18T00:47:51.635Z,971.61
2017-01-18T00:48:51.612Z,971.6
2017-01-18T00:49:51.592Z,971.6
2017-01-18T00:50:51.571Z,971.6
2017-01-18T00:51:51.549Z,971.6
2017-01-18T00:52:51.528Z,971.58
2017-01-18T00:53:51.507Z,971.57
2017-01-18T00:54:51.486Z,971.57
2017-01-18T00:55:51.465Z,971.56
2017-01-18T00:56:51.443Z,971.62
2017-01-18T00:57:51.422Z,971.66
2017-01-18T00:58:51.402Z,971.6
2017-01-18T00:59:51.380Z,971.59
2017-01-18T01:00:51.359Z,971.53
2017-01-18T01:01:51.338Z,971.57
2017-01-18T01:02:51.316Z,971.58
2017-01-18T01:03:51.296Z,971.64
2017-01-18T01:04:51.274Z,971.64
2017-01-18T01:05:51.254Z,971.6
2017-01-18T01:06:51.231Z,971.6
2017-01-18T01:07:51.210Z,971.62
2017-01-18T01:08:51.189Z,971.62
2017-01-18T01:09:51.170Z,971.65
2017-01-18T01:10:51.149Z,971.59
2017-01-18T01:11:51.127Z,971.59
2017-01-18T01:12:51.105Z,971.53
2017-01-18T01:13:51.086Z,971.57
2017-01-18T01:14:51.062Z,971.59
2017-01-18T01:15:51.042Z,971.58
2017-01-18T01:16:51.023Z,971.6
2017-01-18T01:17:50.999Z,971.58
2017-01-18T01:18:50.979Z,971.56
2017-01-18T01:19:50.957Z,971.6
2017-01-18T01:20:50.936Z,971.66
2017-01-18T01:21:50.915Z,971.66
2017-01-18T01:22:50.894Z,971.65
2017-01-18T01:23:50.874Z,971.66
2017-01-18T01:24:50.852Z,971.68
2017-01-18T01:25:50.831Z,971.68
2017-01-18T01:26:50.810Z,971.68
2017-01-18T01:27:50.788Z,971.71
2017-01-18T01:28:50.798Z,971.68
2017-01-18T01:29:50.775Z,971.72
2017-01-18T01:30:50.755Z,971.72
2017-01-18T01:31:50.735Z,971.69
2017-01-18T01:32:50.713Z,971.72
2017-01-18T01:33:50.692Z,971.74
2017-01-18T01:34:50.671Z,971.73
2017-01-18T01:35:50.650Z,971.7
2017-01-18T01:36:50.627Z,971.74
2017-01-18T01:37:50.607Z,971.72
2017-01-18T01:38:50.587Z,971.73
2017-01-18T01:39:50.565Z,971.74
2017-01-18T01:40:50.544Z,971.74
2017-01-18T01:41:50.523Z,971.76
2017-01-18T01:42:50.501Z,971.82
2017-01-18T01:43:50.479Z,971.83
2017-01-18T01:44:50.457Z,971.78
2017-01-18T01:45:50.438Z,971.78
2017-01-18T01:46:50.415Z,971.85
2017-01-18T01:47:50.393Z,971.81
2017-01-18T01:48:50.372Z,971.8
2017-01-18T01:49:50.353Z,971.81
2017-01-18T01:50:50.331Z,971.85
2017-01-18T01:51:50.310Z,971.79
2017-01-18T01:52:50.288Z,971.82
2017-01-18T01:53:50.267Z,971.79
2017-01-18T01:54:50.244Z,971.8
2017-01-18T01:55:50.224Z,971.8
2017-01-18T01:56:50.202Z,971.83
2017-01-18T01:57:50.182Z,971.78
2017-01-18T01:58:50.160Z,971.76
2017-01-18T01:59:50.138Z,971.79
2017-01-18T02:00:50.117Z,971.76
2017-01-18T02:01:50.098Z,971.81
2017-01-18T02:02:50.074Z,971.8
2017-01-18T02:03:50.053Z,971.81
2017-01-18T02:04:50.032Z,971.79
2017-01-18T02:05:50.011Z,971.83
2017-01-18T02:06:49.989Z,971.82
2017-01-18T02:07:49.969Z,971.8
2017-01-18T02:08:49.948Z,971.8
2017-01-18T02:09:49.925Z,971.79
2017-01-18T02:10:49.905Z,971.81
2017-01-18T02:11:49.884Z,971.83
2017-01-18T02:12:49.862Z,971.79
2017-01-18T02:13:49.839Z,971.83
2017-01-18T02:14:49.818Z,971.8
2017-01-18T02:15:49.797Z,971.72
2017-01-18T02:16:49.775Z,971.75
2017-01-18T02:17:49.754Z,971.76
2017-01-18T02:18:49.734Z,971.7
2017-01-18T02:19:49.713Z,971.7
2017-01-18T02:20:49.691Z,971.64
2017-01-18T02:21:49.671Z,971.63
2017-01-18T02:22:49.649Z,971.66
2017-01-18T02:23:49.628Z,971.6
2017-01-18T02:24:49.607Z,971.59
2017-01-18T02:25:49.586Z,971.55
2017-01-18T02:26:49.568Z,971.53
2017-01-18T02:27:49.542Z,971.54
2017-01-18T02:28:49.521Z,971.54
2017-01-18T02:29:49.500Z,971.5
2017-01-18T02:30:49.479Z,971.54
2017-01-18T02:31:49.457Z,971.5
2017-01-18T02:32:49.437Z,971.46
2017-01-18T02:33:49.414Z,971.44
2017-01-18T02:34:49.394Z,971.43
2017-01-18T02:35:49.373Z,971.38
2017-01-18T02:36:49.351Z,971.4
2017-01-18T02:37:49.330Z,971.39
2017-01-18T02:38:49.309Z,971.39
2017-01-18T02:39:49.287Z,971.42
2017-01-18T02:40:49.267Z,971.42
2017-01-18T02:41:49.245Z,971.44
2017-01-18T02:42:49.222Z,971.45
2017-01-18T02:43:49.201Z,971.45
2017-01-18T02:44:49.180Z,971.41
2017-01-18T02:45:49.160Z,971.44
2017-01-18T02:46:49.138Z,971.47
2017-01-18T02:47:49.116Z,971.41
2017-01-18T02:48:49.095Z,971.37
2017-01-18T02:49:49.079Z,971.37
2017-01-18T02:50:49.057Z,971.35
2017-01-18T02:51:49.036Z,971.37
2017-01-18T02:52:49.015Z,971.36
2017-01-18T02:53:48.991Z,971.37
2017-01-18T02:54:48.972Z,971.4
2017-01-18T02:55:48.951Z,971.41
2017-01-18T02:56:48.929Z,971.42
2017-01-18T02:57:48.906Z,971.43
2017-01-18T02:58:48.885Z,971.39
2017-01-18T02:59:48.863Z,971.39
2017-01-18T03:00:48.842Z,971.4
2017-01-18T03:01:48.820Z,971.41
2017-01-18T03:02:48.800Z,971.4
2017-01-18T03:03:48.778Z,971.45
2017-01-18T03:04:48.756Z,971.45
2017-01-18T03:05:48.733Z,971.49
2017-01-18T03:06:48.712Z,971.46
2017-01-18T03:07:48.689Z,971.5
2017-01-18T03:08:48.668Z,971.54
2017-01-18T03:09:48.646Z,971.54
2017-01-18T03:10:48.626Z,971.5
2017-01-18T03:11:48.604Z,971.51
2017-01-18T03:12:48.582Z,971.51
2017-01-18T03:13:48.558Z,971.49
2017-01-18T03:14:48.537Z,971.51
2017-01-18T03:15:48.516Z,971.53
2017-01-18T03:16:48.494Z,971.51
2017-01-18T03:17:48.472Z,971.53
2017-01-18T03:18:48.448Z,971.54
2017-01-18T03:19:48.428Z,971.58
2017-01-18T03:20:48.405Z,971.56
2017-01-18T03:21:48.384Z,971.56
2017-01-18T03:22:48.361Z,971.64
2017-01-18T03:23:48.339Z,971.58
2017-01-18T03:24:48.317Z,971.59
2017-01-18T03:25:48.294Z,971.63
2017-01-18T03:26:48.273Z,971.62
2017-01-18T03:27:48.250Z,971.61
2017-01-18T03:28:48.228Z,971.61
2017-01-18T03:29:48.205Z,971.58
2017-01-18T03:30:48.183Z,971.53
2017-01-18T03:31:48.161Z,971.5
2017-01-18T03:32:48.140Z,971.53
2017-01-18T03:33:48.116Z,971.58
2017-01-18T03:34:48.094Z,971.57
2017-01-18T03:35:48.079Z,971.61
2017-01-18T03:36:48.050Z,971.6
2017-01-18T03:37:48.028Z,971.64
2017-01-18T03:38:48.006Z,971.64
2017-01-18T03:39:47.985Z,971.67
2017-01-18T03:40:47.961Z,971.64
2017-01-18T03:41:47.938Z,971.64
2017-01-18T03:42:47.916Z,971.68
2017-01-18T03:43:47.895Z,971.72
2017-01-18T03:44:47.872Z,971.69
2017-01-18T03:45:47.849Z,971.7
2017-01-18T03:46:47.829Z,971.68
2017-01-18T03:47:47.805Z,971.67
2017-01-18T03:48:47.784Z,971.66
2017-01-18T03:49:47.761Z,971.69
2017-01-18T03:50:47.740Z,971.7
2017-01-18T03:51:47.717Z,971.65
2017-01-18T03:52:47.696Z,971.61
2017-01-18T03:53:47.673Z,971.65
2017-01-18T03:54:47.652Z,971.66
2017-01-18T03:55:47.628Z,971.62
2017-01-18T03:56:47.606Z,971.62
2017-01-18T03:57:47.586Z,971.58
2017-01-18T03:58:47.563Z,971.57
2017-01-18T03:59:47.541Z,971.58
2017-01-18T04:00:47.520Z,971.55
2017-01-18T04:01:47.499Z,971.51
2017-01-18T04:02:47.476Z,971.49
2017-01-18T04:03:47.453Z,971.52
2017-01-18T04:04:47.432Z,971.51
2017-01-18T04:05:47.410Z,971.53
2017-01-18T04:06:47.387Z,971.54
2017-01-18T04:07:47.365Z,971.62
2017-01-18T04:08:47.345Z,971.61
2017-01-18T04:09:47.324Z,971.58
2017-01-18T04:10:47.300Z,971.6
2017-01-18T04:11:47.280Z,971.59
2017-01-18T04:12:47.257Z,971.58
2017-01-18T04:13:47.235Z,971.58
2017-01-18T04:14:47.213Z,971.59
2017-01-18T04:15:47.191Z,971.58
2017-01-18T04:16:47.171Z,971.63
2017-01-18T04:17:47.147Z,971.59
2017-01-18T04:18:47.126Z,971.59
2017-01-18T04:19:47.105Z,971.63
2017-01-18T04:20:47.082Z,971.64
2017-01-18T04:21:47.059Z,971.59
2017-01-18T04:22:47.039Z,971.58
2017-01-18T04:23:47.017Z,971.58
2017-01-18T04:24:46.993Z,971.62
2017-01-18T04:25:46.973Z,971.61
2017-01-18T04:26:46.950Z,971.59
2017-01-18T04:27:46.929Z,971.6
2017-01-18T04:28:46.907Z,971.58
2017-01-18T04:29:46.987Z,971.57
2017-01-18T04:30:46.865Z,971.56
2017-01-18T04:31:46.843Z,971.57
2017-01-18T04:32:46.820Z,971.53
2017-01-18T04:33:46.799Z,971.5
2017-01-18T04:34:46.778Z,971.54
2017-01-18T04:35:46.754Z,971.56
2017-01-18T04:36:46.734Z,971.54
2017-01-18T04:37:46.713Z,971.54
2017-01-18T04:38:46.689Z,971.55
2017-01-18T04:39:46.668Z,971.56
2017-01-18T04:40:46.645Z,971.58
2017-01-18T04:41:46.625Z,971.63
2017-01-18T04:42:46.603Z,971.61
2017-01-18T04:43:46.581Z,971.65
2017-01-18T04:44:46.560Z,971.71
2017-01-18T04:45:46.539Z,971.7
2017-01-18T04:46:46.517Z,971.7
2017-01-18T04:47:46.495Z,971.71
2017-01-18T04:48:46.473Z,971.71
2017-01-18T04:49:46.451Z,971.78
2017-01-18T04:50:46.429Z,971.75
2017-01-18T04:51:46.408Z,971.75
2017-01-18T04:52:46.387Z,971.72
2017-01-18T04:53:46.364Z,971.71
2017-01-18T04:54:46.343Z,971.75
2017-01-18T04:55:46.322Z,971.71
2017-01-18T04:56:46.300Z,971.74
2017-01-18T04:57:46.277Z,971.7
2017-01-18T04:58:46.256Z,971.71
2017-01-18T04:59:46.234Z,971.67
2017-01-18T05:00:46.212Z,971.69
2017-01-18T05:01:46.189Z,971.68
2017-01-18T05:02:46.167Z,971.68
2017-01-18T05:03:46.146Z,971.71
2017-01-18T05:04:46.124Z,971.67
2017-01-18T05:05:46.103Z,971.68
2017-01-18T05:06:46.081Z,971.65
2017-01-18T05:07:46.057Z,971.73
2017-01-18T05:08:46.035Z,971.68
2017-01-18T05:09:46.019Z,971.59
2017-01-18T05:10:45.992Z,971.58
2017-01-18T05:11:45.971Z,971.56
2017-01-18T05:12:45.947Z,971.56
2017-01-18T05:13:45.926Z,971.52
2017-01-18T05:14:45.905Z,971.51
2017-01-18T05:15:45.882Z,971.5
2017-01-18T05:16:45.861Z,971.53
2017-01-18T05:17:45.838Z,971.54
2017-01-18T05:18:45.817Z,971.55
2017-01-18T05:19:45.794Z,971.55
2017-01-18T05:20:45.773Z,971.61
2017-01-18T05:21:45.751Z,971.63
2017-01-18T05:22:45.727Z,971.62
2017-01-18T05:23:45.706Z,971.62
2017-01-18T05:24:45.684Z,971.61
2017-01-18T05:25:45.663Z,971.54
2017-01-18T05:26:45.641Z,971.57
2017-01-18T05:27:45.619Z,971.59
2017-01-18T05:28:45.596Z,971.61
2017-01-18T05:29:45.575Z,971.67
2017-01-18T05:30:45.551Z,971.69
2017-01-18T05:31:45.529Z,971.75
2017-01-18T05:32:45.507Z,971.84
2017-01-18T05:33:45.485Z,971.85
2017-01-18T05:34:45.461Z,971.89
2017-01-18T05:35:45.440Z,971.87
2017-01-18T05:36:45.419Z,971.88
2017-01-18T05:37:45.394Z,971.88
2017-01-18T05:38:45.373Z,971.9
2017-01-18T05:39:45.350Z,971.94
2017-01-18T05:40:45.329Z,971.93
2017-01-18T05:41:45.306Z,971.98
2017-01-18T05:42:45.283Z,971.97
2017-01-18T05:43:45.261Z,972.03
2017-01-18T05:44:45.237Z,972
2017-01-18T05:45:45.215Z,972.02
2017-01-18T05:46:45.192Z,972
2017-01-18T05:47:45.170Z,972.02
2017-01-18T05:48:45.146Z,972.01
2017-01-18T05:49:45.124Z,972.04
2017-01-18T05:50:45.102Z,971.99
2017-01-18T05:51:45.079Z,971.96
2017-01-18T05:52:45.055Z,972
2017-01-18T05:53:45.034Z,971.92
2017-01-18T05:54:45.010Z,971.93
2017-01-18T05:55:44.987Z,971.94
2017-01-18T05:56:44.966Z,971.93
2017-01-18T05:57:44.942Z,971.92
2017-01-18T05:58:44.919Z,971.91
2017-01-18T05:59:44.895Z,971.91
2017-01-18T06:00:44.873Z,971.92
2017-01-18T06:01:44.859Z,971.89
2017-01-18T06:02:44.826Z,971.86
2017-01-18T06:03:44.805Z,971.89
2017-01-18T06:04:44.780Z,971.88
2017-01-18T06:05:44.759Z,971.91
2017-01-18T06:06:44.734Z,971.85
2017-01-18T06:07:44.711Z,971.83
2017-01-18T06:08:44.687Z,971.86
2017-01-18T06:09:44.665Z,971.85
2017-01-18T06:10:44.641Z,971.88
2017-01-18T06:11:44.618Z,971.89
2017-01-18T06:12:44.595Z,971.94
2017-01-18T06:13:44.570Z,971.91
2017-01-18T06:14:44.547Z,971.9
2017-01-18T06:15:44.524Z,971.94
2017-01-18T06:16:44.502Z,971.91
2017-01-18T06:17:44.476Z,971.91
2017-01-18T06:18:44.454Z,971.95
2017-01-18T06:19:44.430Z,971.95
2017-01-18T06:20:44.408Z,971.9
2017-01-18T06:21:44.384Z,971.94
2017-01-18T06:22:44.360Z,971.93
2017-01-18T06:23:44.336Z,971.97
2017-01-18T06:24:44.311Z,971.96
2017-01-18T06:25:44.289Z,971.96
2017-01-18T06:26:44.266Z,971.9
2017-01-18T06:27:44.241Z,971.97
2017-01-18T06:28:44.218Z,971.92
2017-01-18T06:29:44.195Z,972.02
2017-01-18T06:30:44.171Z,972.05
2017-01-18T06:31:44.147Z,972.03
2017-01-18T06:32:44.122Z,972.07
2017-01-18T06:33:44.099Z,972.05
2017-01-18T06:34:44.075Z,972.04
2017-01-18T06:35:44.052Z,972.13
2017-01-18T06:36:44.028Z,972.09
2017-01-18T06:37:44.005Z,972.16
2017-01-18T06:38:43.981Z,972.19
2017-01-18T06:39:43.957Z,972.19
2017-01-18T06:40:43.933Z,972.23
2017-01-18T06:41:43.909Z,972.25
2017-01-18T06:42:43.886Z,972.27
2017-01-18T06:43:43.861Z,972.28
2017-01-18T06:44:43.837Z,972.3
2017-01-18T06:45:43.813Z,972.26
2017-01-18T06:46:43.789Z,972.28
2017-01-18T06:47:43.766Z,972.28
2017-01-18T06:48:43.742Z,972.28
2017-01-18T06:49:43.718Z,972.25
2017-01-18T06:50:43.694Z,972.27
2017-01-18T06:51:43.671Z,972.3
2017-01-18T06:52:43.647Z,972.28
2017-01-18T06:53:43.623Z,972.31
2017-01-18T06:54:43.598Z,972.29
2017-01-18T06:55:43.574Z,972.26
2017-01-18T06:56:43.550Z,972.3
2017-01-18T06:57:43.526Z,972.24
2017-01-18T06:58:43.503Z,972.26
2017-01-18T06:59:43.478Z,972.26
2017-01-18T07:00:43.456Z,972.26
2017-01-18T07:01:43.430Z,972.26
2017-01-18T07:02:43.407Z,972.31
2017-01-18T07:03:43.384Z,972.25
2017-01-18T07:04:43.360Z,972.28
2017-01-18T07:05:43.335Z,972.2
2017-01-18T07:06:43.311Z,972.25
2017-01-18T07:07:43.289Z,972.21
2017-01-18T07:08:43.264Z,972.19
2017-01-18T07:09:43.238Z,972.15
2017-01-18T07:10:43.214Z,972.19
2017-01-18T07:11:43.192Z,972.12
2017-01-18T07:12:43.166Z,972.14
2017-01-18T07:13:43.142Z,972.15
2017-01-18T07:14:43.118Z,972.15
2017-01-18T07:15:43.095Z,972.13
2017-01-18T07:16:43.071Z,972.16
2017-01-18T07:17:43.047Z,972.21
2017-01-18T07:18:43.024Z,972.24
2017-01-18T07:19:42.996Z,972.23
2017-01-18T07:20:42.973Z,972.25
2017-01-18T07:21:42.949Z,972.29
2017-01-18T07:22:42.926Z,972.34
2017-01-18T07:23:42.901Z,972.28
2017-01-18T07:24:42.878Z,972.35
2017-01-18T07:25:42.854Z,972.35
2017-01-18T07:26:42.830Z,972.39
2017-01-18T07:27:42.805Z,972.45
2017-01-18T07:28:42.780Z,972.47
2017-01-18T07:29:42.757Z,972.46
2017-01-18T07:30:42.732Z,972.48
2017-01-18T07:31:42.708Z,972.52
2017-01-18T07:32:42.685Z,972.54
2017-01-18T07:33:42.659Z,972.53
2017-01-18T07:34:42.635Z,972.57
2017-01-18T07:35:42.612Z,972.55
2017-01-18T07:36:42.588Z,972.54
2017-01-18T07:37:42.562Z,972.59
2017-01-18T07:38:42.540Z,972.55
2017-01-18T07:39:42.515Z,972.6
2017-01-18T07:40:42.491Z,972.64
2017-01-18T07:41:42.467Z,972.63
2017-01-18T07:42:42.442Z,972.64
2017-01-18T07:43:42.419Z,972.67
2017-01-18T07:44:42.394Z,972.64
2017-01-18T07:45:42.369Z,972.68
2017-01-18T07:46:42.345Z,972.69
2017-01-18T07:47:42.321Z,972.65
2017-01-18T07:48:42.295Z,972.62
2017-01-18T07:49:42.271Z,972.65
2017-01-18T07:50:42.246Z,972.64
2017-01-18T07:51:42.224Z,972.65
2017-01-18T07:52:42.199Z,972.6
2017-01-18T07:53:42.174Z,972.63
2017-01-18T07:54:42.151Z,972.63
2017-01-18T07:55:42.127Z,972.62
2017-01-18T07:56:42.101Z,972.64
2017-01-18T07:57:42.078Z,972.65
2017-01-18T07:58:42.054Z,972.68
2017-01-18T07:59:42.029Z,972.67
2017-01-18T08:00:42.004Z,972.65
2017-01-18T08:01:41.980Z,972.7
2017-01-18T08:02:41.960Z,972.74
2017-01-18T08:03:41.931Z,972.73
2017-01-18T08:04:41.907Z,972.75
2017-01-18T08:05:41.883Z,972.71
2017-01-18T08:06:41.860Z,972.73
2017-01-18T08:07:41.833Z,972.66
2017-01-18T08:08:41.811Z,972.67
2017-01-18T08:09:41.786Z,972.66
2017-01-18T08:10:41.760Z,972.64
2017-01-18T08:11:41.738Z,972.61
2017-01-18T08:12:41.713Z,972.64
2017-01-18T08:13:41.691Z,972.65
2017-01-18T08:14:41.665Z,972.61
2017-01-18T08:15:41.640Z,972.62
2017-01-18T08:16:41.617Z,972.64
2017-01-18T08:17:41.593Z,972.66
2017-01-18T08:18:41.568Z,972.67
2017-01-18T08:19:41.544Z,972.59
2017-01-18T08:20:41.520Z,972.64
2017-01-18T08:21:41.496Z,972.68
2017-01-18T08:22:41.470Z,972.7
2017-01-18T08:23:41.446Z,972.72
2017-01-18T08:24:41.422Z,972.7
2017-01-18T08:25:41.397Z,972.71
2017-01-18T08:26:41.374Z,972.71
2017-01-18T08:27:41.350Z,972.67
2017-01-18T08:28:41.326Z,972.66
2017-01-18T08:29:41.301Z,972.7
2017-01-18T08:30:41.277Z,972.74
2017-01-18T08:31:41.254Z,972.76
2017-01-18T08:32:41.229Z,972.73
2017-01-18T08:33:41.205Z,972.75
2017-01-18T08:34:41.181Z,972.76
2017-01-18T08:35:41.157Z,972.75
2017-01-18T08:36:41.132Z,972.76
2017-01-18T08:37:41.110Z,972.75
2017-01-18T08:38:41.085Z,972.72
2017-01-18T08:39:41.061Z,972.76
2017-01-18T08:40:41.037Z,972.78
2017-01-18T08:41:41.013Z,972.72
2017-01-18T08:42:40.990Z,972.71
2017-01-18T08:43:40.969Z,972.74
2017-01-18T08:44:40.942Z,972.76
2017-01-18T08:45:40.917Z,972.74
2017-01-18T08:46:40.894Z,972.8
2017-01-18T08:47:40.870Z,972.81
2017-01-18T08:48:40.846Z,972.82
2017-01-18T08:49:40.822Z,972.77
2017-01-18T08:50:40.799Z,972.74
2017-01-18T08:51:40.774Z,972.74
2017-01-18T08:52:40.751Z,972.76
2017-01-18T08:53:40.728Z,972.79
2017-01-18T08:54:40.703Z,972.78
2017-01-18T08:55:40.680Z,972.86
2017-01-18T08:56:40.656Z,972.82
2017-01-18T08:57:40.633Z,972.88
2017-01-18T08:58:40.609Z,972.84
2017-01-18T08:59:40.585Z,972.82
2017-01-18T09:00:40.561Z,972.86
2017-01-18T09:01:40.541Z,972.76
2017-01-18T09:02:40.515Z,972.86
2017-01-18T09:03:40.490Z,972.81
2017-01-18T09:04:40.468Z,972.88
2017-01-18T09:05:40.445Z,972.84
2017-01-18T09:06:40.419Z,972.87
2017-01-18T09:07:40.395Z,972.9
2017-01-18T09:08:40.373Z,972.89
2017-01-18T09:09:40.349Z,972.93
2017-01-18T09:10:40.324Z,972.94
2017-01-18T09:11:40.302Z,972.97
2017-01-18T09:12:40.279Z,972.94
2017-01-18T09:13:40.256Z,972.92
2017-01-18T09:14:40.233Z,972.93
2017-01-18T09:15:40.209Z,972.95
2017-01-18T09:16:40.185Z,972.93
2017-01-18T09:17:40.162Z,972.94
2017-01-18T09:18:40.138Z,972.9
2017-01-18T09:19:40.115Z,972.87
2017-01-18T09:20:40.091Z,972.9
2017-01-18T09:21:40.069Z,972.87
2017-01-18T09:22:40.045Z,972.9
2017-01-18T09:23:40.021Z,972.85
2017-01-18T09:24:39.999Z,972.88
2017-01-18T09:25:39.975Z,972.9
2017-01-18T09:26:39.952Z,972.88
2017-01-18T09:27:39.928Z,972.89
2017-01-18T09:28:39.905Z,972.83
2017-01-18T09:29:39.882Z,972.84
2017-01-18T09:30:39.860Z,972.85
2017-01-18T09:31:39.835Z,972.85
2017-01-18T09:32:39.812Z,972.88
2017-01-18T09:33:39.790Z,972.84
2017-01-18T09:34:39.766Z,972.87
2017-01-18T09:35:39.742Z,972.86
2017-01-18T09:36:39.719Z,972.85
2017-01-18T09:37:39.695Z,972.86
2017-01-18T09:38:39.671Z,972.88
2017-01-18T09:39:39.670Z,972.89
2017-01-18T09:40:39.626Z,972.89
2017-01-18T09:41:39.604Z,972.89
2017-01-18T09:42:39.579Z,972.88
2017-01-18T09:43:39.556Z,972.91
2017-01-18T09:44:39.533Z,972.89
2017-01-18T09:45:39.509Z,972.86
2017-01-18T09:46:39.488Z,972.89
2017-01-18T09:47:39.465Z,972.88
2017-01-18T09:48:39.441Z,972.87
2017-01-18T09:49:39.419Z,972.85
2017-01-18T09:50:39.395Z,972.9
2017-01-18T09:51:39.373Z,972.92
2017-01-18T09:52:39.350Z,972.89
2017-01-18T09:53:39.327Z,972.86
2017-01-18T09:54:39.304Z,972.91
2017-01-18T09:55:39.284Z,972.93
2017-01-18T09:56:39.257Z,972.94
2017-01-18T09:57:39.235Z,972.93
2017-01-18T09:58:39.213Z,972.92
2017-01-18T09:59:39.190Z,972.92
2017-01-18T10:00:39.165Z,972.95
2017-01-18T10:01:39.143Z,972.91
2017-01-18T10:02:39.121Z,972.94
2017-01-18T10:03:39.098Z,972.93
2017-01-18T10:04:39.076Z,972.89
2017-01-18T10:05:39.052Z,972.89
2017-01-18T10:06:39.029Z,972.88
2017-01-18T10:07:39.007Z,972.87
2017-01-18T10:08:38.983Z,972.88
2017-01-18T10:09:38.961Z,972.9
2017-01-18T10:10:38.939Z,972.88
2017-01-18T10:11:38.916Z,972.9
2017-01-18T10:12:38.893Z,972.89
2017-01-18T10:13:38.871Z,972.91
2017-01-18T10:14:38.849Z,972.88
2017-01-18T10:15:38.825Z,972.91
2017-01-18T10:16:38.802Z,972.89
2017-01-18T10:17:38.781Z,972.93
2017-01-18T10:18:38.757Z,972.97
2017-01-18T10:19:38.736Z,972.94
2017-01-18T10:20:38.713Z,972.94
2017-01-18T10:21:38.691Z,972.92
2017-01-18T10:22:38.668Z,972.9
2017-01-18T10:23:38.646Z,972.85
2017-01-18T10:24:38.623Z,972.84
2017-01-18T10:25:38.600Z,972.83
2017-01-18T10:26:38.578Z,972.82
2017-01-18T10:27:38.554Z,972.82
2017-01-18T10:28:38.533Z,972.83
2017-01-18T10:29:38.509Z,972.86
2017-01-18T10:30:38.489Z,972.84
2017-01-18T10:31:38.466Z,972.81
2017-01-18T10:32:38.443Z,972.77
2017-01-18T10:33:38.420Z,972.75
2017-01-18T10:34:38.401Z,972.77
2017-01-18T10:35:38.378Z,972.75
2017-01-18T10:36:38.356Z,972.78
2017-01-18T10:37:38.333Z,972.75
2017-01-18T10:38:38.311Z,972.71
2017-01-18T10:39:38.290Z,972.68
2017-01-18T10:40:38.264Z,972.7
2017-01-18T10:41:38.244Z,972.73
2017-01-18T10:42:38.222Z,972.69
2017-01-18T10:43:38.200Z,972.71
2017-01-18T10:44:38.177Z,972.72
2017-01-18T10:45:38.156Z,972.77
2017-01-18T10:46:38.134Z,972.79
2017-01-18T10:47:38.112Z,972.75
2017-01-18T10:48:38.089Z,972.71
2017-01-18T10:49:38.070Z,972.74
2017-01-18T10:50:38.047Z,972.78
2017-01-18T10:51:38.023Z,972.75
2017-01-18T10:52:38.002Z,972.72
2017-01-18T10:53:37.981Z,972.7
2017-01-18T10:54:37.960Z,972.66
2017-01-18T10:55:37.936Z,972.69
2017-01-18T10:56:37.914Z,972.7
2017-01-18T10:57:37.894Z,972.72
2017-01-18T10:58:37.870Z,972.69
2017-01-18T10:59:37.850Z,972.67
2017-01-18T11:00:37.830Z,972.68
2017-01-18T11:01:37.806Z,972.67
2017-01-18T11:02:37.784Z,972.69
2017-01-18T11:03:37.763Z,972.68
2017-01-18T11:04:37.741Z,972.66
2017-01-18T11:05:37.721Z,972.72
2017-01-18T11:06:37.698Z,972.74
2017-01-18T11:07:37.677Z,972.71
2017-01-18T11:08:37.655Z,972.74
2017-01-18T11:09:37.633Z,972.73
2017-01-18T11:10:37.612Z,972.74
2017-01-18T11:11:37.591Z,972.71
2017-01-18T11:12:37.570Z,972.77
2017-01-18T11:13:37.547Z,972.71
2017-01-18T11:14:37.527Z,972.68
2017-01-18T11:15:37.506Z,972.62
2017-01-18T11:16:37.488Z,972.71
2017-01-18T11:17:37.461Z,972.6
2017-01-18T11:18:37.440Z,972.66
2017-01-18T11:19:37.419Z,972.66
2017-01-18T11:20:37.397Z,972.65
2017-01-18T11:21:37.376Z,972.63
2017-01-18T11:22:37.357Z,972.62
2017-01-18T11:23:37.336Z,972.57
2017-01-18T11:24:37.313Z,972.59
2017-01-18T11:25:37.292Z,972.58
2017-01-18T11:26:37.270Z,972.56
2017-01-18T11:27:37.250Z,972.54
2017-01-18T11:28:37.228Z,972.54
2017-01-18T11:29:37.206Z,972.52
2017-01-18T11:30:37.187Z,972.5
2017-01-18T11:31:37.165Z,972.47
2017-01-18T11:32:37.142Z,972.47
2017-01-18T11:33:37.121Z,972.42
2017-01-18T11:34:37.101Z,972.45
2017-01-18T11:35:37.080Z,972.38
2017-01-18T11:36:37.059Z,972.36
2017-01-18T11:37:37.038Z,972.41
2017-01-18T11:38:37.016Z,972.35
2017-01-18T11:39:36.994Z,972.32
2017-01-18T11:40:36.973Z,972.33
2017-01-18T11:41:36.951Z,972.32
2017-01-18T11:42:36.930Z,972.32
2017-01-18T11:43:36.909Z,972.32
2017-01-18T11:44:36.889Z,972.31
2017-01-18T11:45:36.868Z,972.31
2017-01-18T11:46:36.846Z,972.32
2017-01-18T11:47:36.825Z,972.34
2017-01-18T11:48:36.803Z,972.36
2017-01-18T11:49:36.783Z,972.37
2017-01-18T11:50:36.761Z,972.35
2017-01-18T11:51:36.740Z,972.39
2017-01-18T11:52:36.719Z,972.39
2017-01-18T11:53:36.698Z,972.44
2017-01-18T11:54:36.676Z,972.48
2017-01-18T11:55:36.654Z,972.44
2017-01-18T11:56:36.633Z,972.43
2017-01-18T11:57:36.611Z,972.51
2017-01-18T11:58:36.590Z,972.5
2017-01-18T11:59:36.569Z,972.51
2017-01-18T12:00:36.550Z,972.47
2017-01-18T12:01:36.528Z,972.48
2017-01-18T12:02:36.507Z,972.47
2017-01-18T12:03:36.487Z,972.46
2017-01-18T12:04:36.464Z,972.43
2017-01-18T12:05:36.442Z,972.43
2017-01-18T12:06:36.422Z,972.4
2017-01-18T12:07:36.402Z,972.45
2017-01-18T12:08:36.379Z,972.47
2017-01-18T12:09:36.358Z,972.48
2017-01-18T12:10:36.337Z,972.45
2017-01-18T12:11:36.315Z,972.44
2017-01-18T12:12:36.295Z,972.43
2017-01-18T12:13:36.274Z,972.44
2017-01-18T12:14:36.253Z,972.38
2017-01-18T12:15:36.231Z,972.43
2017-01-18T12:16:36.211Z,972.42
2017-01-18T12:17:36.189Z,972.41
2017-01-18T12:18:36.169Z,972.4
2017-01-18T12:19:36.147Z,972.42
2017-01-18T12:20:36.126Z,972.35
2017-01-18T12:21:36.108Z,972.42
2017-01-18T12:22:36.084Z,972.39
2017-01-18T12:23:36.063Z,972.4
2017-01-18T12:24:36.042Z,972.42
2017-01-18T12:25:36.021Z,972.38
2017-01-18T12:26:35.998Z,972.4
2017-01-18T12:27:35.978Z,972.39
2017-01-18T12:28:35.958Z,972.43
2017-01-18T12:29:35.939Z,972.41
2017-01-18T12:30:35.915Z,972.41
2017-01-18T12:31:35.893Z,972.37